Aviation Digital Data Service (ADDS)

Output produced by METARs form (0424 UTC 20 October 2014)
found at http://www.aviationweather.gov/adds/metars/
 
KIPT 200254Z AUTO 00000KT 10SM CLR 03/M01 A3007 RMK AO2 SLP187 T00331011 51007
KIPT 200154Z 00000KT 10SM CLR 04/M01 A3007 RMK AO2 SLP185 T00391011
KIPT 200054Z 00000KT 10SM CLR 05/M01 A3006 RMK AO2 SLP184 T00501011
KIPT 192354Z 00000KT 10SM CLR 06/M01 A3005 RMK AO2 SLP179 T00611011 10128 20061 53015
KIPT 192254Z 21003KT 10SM CLR 08/M02 A3003 RMK AO2 SLP171 T00781017
KIPT 192154Z 31005KT 10SM CLR 11/M05 A3001 RMK AO2 SLP165 T01111050
KIPT 192054Z 29009KT 10SM CLR 12/M04 A3001 RMK AO2 SLP163 T01221039 56006
KIPT 191954Z 30007KT 10SM CLR 12/M03 A3001 RMK AO2 SLP162 T01221033
KIPT 191854Z 29012G20KT 10SM CLR 12/M04 A3002 RMK AO2 SLP165 T01171044
KIPT 191754Z 31012G17KT 10SM CLR 11/M03 A3003 RMK AO2 SLP169 60000 T01111033 10111 20050 58013
KIPT 191654Z 30015G20KT 10SM SCT046 10/M03 A3004 RMK AO2 SLP176 T01001028
KIPT 191554Z 30012KT 10SM BKN043 08/M03 A3006 RMK AO2 SLP180 T00831028
KIPT 191454Z 29011G19KT 10SM OVC044 08/M03 A3006 RMK AO2 SLP182 60000 T00781028 51016
KIPT 191354Z 32011KT 10SM OVC039 06/M03 A3005 RMK AO2 SLP179 T00611028
KIPT 191254Z 29009KT 10SM OVC044 06/M01 A3004 RMK AO2 RAE21 SLP175 P0000 T00561006
KIPT 191154Z 31017G22KT 10SM -RA FEW027 OVC034 06/M01 A3002 RMK AO2 RAB39 SLP166 P0000 60000 70001 T00561006 10089 20056 53032
KIPT 191054Z 29007KT 10SM SCT050 06/01 A2998 RMK AO2 SLP152 T00610011
KIPT 190954Z AUTO 32009KT 10SM BKN034 OVC048 07/01 A2995 RMK AO2 SLP141 T00720006
KIPT 190854Z AUTO 29008KT 10SM SCT037 BKN045 OVC075 08/01 A2992 RMK AO2 SLP132 T00780011 53017
KIPT 190754Z AUTO 33006KT 10SM OVC032 08/02 A2989 RMK AO2 SLP123 T00830017
KIPT 190654Z AUTO 31011KT 10SM OVC032 09/02 A2987 RMK AO2 SLP117 T00890022
KIPT 190554Z AUTO 30008KT 10SM BKN037 OVC065 09/02 A2987 RMK AO2 SLP115 60000 T00890022 10117 20089 51017
KIPT 190454Z AUTO 29009KT 10SM OVC035 09/02 A2986 RMK AO2 RAE21 SLP113 P0000 T00940022 401720089
KIPT 190354Z AUTO 35006G17KT 10SM -RA BKN030 OVC038 09/04 A2985 RMK AO2 RAB50 SLP107 P0000 T00940039
KIPT 190254Z AUTO 31008KT 10SM OVC065 10/03 A2982 RMK AO2 SLP098 T01000033 53019
KIPT 190154Z 32009KT 10SM BKN043 OVC055 11/04 A2981 RMK AO2 SLP093 T01060039
KIPT 190054Z 29007KT 10SM FEW044 FEW090 11/05 A2977 RMK AO2 SLP083 T01110050
KIPT 182354Z 29006KT 10SM SCT041 OVC050 12/06 A2976 RMK AO2 RAE02B31E39 SLP079 P0000 60000 T01170056 10161 20117 51023
KIPT 182254Z 28007KT 10SM -RA BKN046 OVC055 13/05 A2974 RMK AO2 RAB23 SLP071 P0000 T01280050
KIPT 182154Z 29009G18KT 10SM SCT050 SCT060 OVC085 14/04 A2972 RMK AO2 RAB01E06 SLP062 P0000 T01390039
KIPT 182054Z 27014KT 10SM BKN060 BKN070 OVC085 14/04 A2969 RMK AO2 RAB1957E33 SLP054 P0000 60000 T01390044 53012
KIPT 181954Z 28012G20KT 10SM BKN055 OVC065 15/03 A2967 RMK AO2 SLP046 T01500033
KIPT 181854Z 27013G25KT 10SM FEW043 15/04 A2965 RMK AO2 SLP041 T01500044
KIPT 181754Z 25009KT 10SM FEW050 OVC065 13/08 A2966 RMK AO2 RAB20E50 SLP042 P0000 60001 T01330078 10172 20128 53008
KIPT 181654Z 27013KT 10SM FEW070 OVC095 14/08 A2964 RMK AO2 PK WND 27027/1603 RAB00E20 SLP038 P0001 T01440078